KPSC/PSC METAR and TAF weather

Enter ICAO airport designator
Station Type Date Time Source
KPSC METAR 2022/06/27 07:53 UTC NOAA

KPSC 270753Z AUTO 33005KT 10SM CLR 19/12 A2998 RMK AO2 SLP147 T01940122 403780111


Station Type Date Time Source
KPSC Decoded METAR 2022/06/27 07:53 UTC NOAA

TRI-CITIES AIRPORT, WA, United States (KPSC) 46-16N 119-07W 121M
Jun 27, 2022 - 03:53 AM EDT / 2022.06.27 0753 UTC
Wind: from the NNW (330 degrees) at 6 MPH (5 KT):0
Visibility: 10 mile(s):0
Sky conditions: clear
Temperature: 66.9 F (19.4 C)
Dew Point: 54.0 F (12.2 C)
Relative Humidity: 63%
Pressure (altimeter): 29.98 in. Hg (1015 hPa)
ob: KPSC 270753Z AUTO 33005KT 10SM CLR 19/12 A2998 RMK AO2 SLP147 T01940122 403780111
cycle: 8

Station Type Date Time Source
KPSC TAF 2022/06/27 06:27 UTC NOAA

TAF KPSC 270524Z 2706/2806 32007KT P6SM SKC
FM271500 VRB06KT P6SM SKC
FM280400 20007KT P6SM FEW100

Example: see airport list